createdAt,value
2022-08-17T00:00:11.046Z,100552.91
2022-08-17T00:03:17.572Z,100558.31
2022-08-17T00:05:58.483Z,100555.84
2022-08-17T00:08:30.014Z,100559.84
2022-08-17T00:10:59.368Z,100541.25
2022-08-17T00:13:32.949Z,100545.47
2022-08-17T00:16:03.762Z,100539.94
2022-08-17T00:19:01.010Z,100543.13
2022-08-17T00:21:23.765Z,100536.06
2022-08-17T00:23:52.335Z,100536.41
2022-08-17T00:26:43.464Z,100538.31
2022-08-17T00:29:07.838Z,100540.56
2022-08-17T00:31:35.736Z,100544.56
2022-08-17T00:34:04.511Z,100549.97
2022-08-17T00:36:31.290Z,100551.97
2022-08-17T00:38:59.090Z,100545.97
2022-08-17T00:41:28.254Z,100539.72
2022-08-17T00:44:03.124Z,100542.91
2022-08-17T00:46:38.259Z,100544.22
2022-08-17T00:49:08.879Z,100533.00
2022-08-17T00:51:42.409Z,100537.59
2022-08-17T00:54:28.011Z,100533.59
2022-08-17T00:56:59.543Z,100538.41
2022-08-17T00:59:31.247Z,100536.78
2022-08-17T01:01:59.134Z,100537.97
2022-08-17T01:04:29.185Z,100532.44
2022-08-17T01:06:58.950Z,100524.31
2022-08-17T01:09:25.863Z,100531.59
2022-08-17T01:11:53.922Z,100534.63
2022-08-17T01:14:23.047Z,100536.16
2022-08-17T01:16:54.183Z,100530.16
2022-08-17T01:19:30.780Z,100533.94
2022-08-17T01:22:09.141Z,100538.63
2022-08-17T01:24:37.386Z,100529.94
2022-08-17T01:27:10.426Z,100525.66
2022-08-17T01:29:39.703Z,100532.59
2022-08-17T01:32:08.288Z,100529.06
2022-08-17T01:34:42.613Z,100524.94
2022-08-17T01:37:11.035Z,100528.25
2022-08-17T01:39:52.518Z,100525.53
2022-08-17T01:42:31.203Z,100518.59
2022-08-17T01:45:02.002Z,100521.31
2022-08-17T01:47:29.821Z,100513.81
2022-08-17T01:49:58.223Z,100514.25
2022-08-17T01:52:24.990Z,100511.78
2022-08-17T01:54:52.579Z,100512.13
2022-08-17T01:57:19.276Z,100515.44
2022-08-17T01:59:46.092Z,100517.34
2022-08-17T02:02:12.927Z,100518.59
2022-08-17T02:04:59.135Z,100514.25
2022-08-17T02:07:26.188Z,100515.78
2022-08-17T02:09:53.983Z,100511.41
2022-08-17T02:12:39.535Z,100513.97
2022-08-17T02:15:10.328Z,100506.56
2022-08-17T02:17:37.074Z,100512.09
2022-08-17T02:20:05.019Z,100501.72
2022-08-17T02:22:31.978Z,100504.28
2022-08-17T02:25:02.339Z,100509.56
2022-08-17T02:27:29.761Z,100516.25
2022-08-17T02:29:56.612Z,100506.16
2022-08-17T02:32:28.131Z,100507.78
2022-08-17T02:34:59.037Z,100512.97
2022-08-17T02:37:28.162Z,100509.53
2022-08-17T02:39:57.231Z,100502.13
2022-08-17T02:42:34.661Z,100503.16
2022-08-17T02:45:03.133Z,100502.78
2022-08-17T02:47:30.281Z,100509.34
2022-08-17T02:49:57.588Z,100516.88
2022-08-17T02:52:42.864Z,100511.94
2022-08-17T02:55:20.771Z,100512.41
2022-08-17T02:57:48.358Z,100510.75
2022-08-17T03:00:24.635Z,100508.03
2022-08-17T03:02:52.225Z,100510.13
2022-08-17T03:05:21.798Z,100503.50
2022-08-17T03:07:49.242Z,100508.31
2022-08-17T03:10:17.343Z,100507.13
2022-08-17T03:12:45.646Z,100505.94
2022-08-17T03:15:17.628Z,100506.38
2022-08-17T03:17:45.305Z,100507.91
2022-08-17T03:20:13.757Z,100515.56
2022-08-17T03:22:53.435Z,100500.22
2022-08-17T03:25:36.134Z,100506.44
2022-08-17T03:28:04.790Z,100503.97
2022-08-17T03:30:33.235Z,100503.97
2022-08-17T03:33:02.271Z,100493.84
2022-08-17T03:35:34.053Z,100501.50
2022-08-17T03:38:01.647Z,100497.25
2022-08-17T03:40:55.274Z,100501.91
2022-08-17T03:43:18.727Z,100505.13
2022-08-17T03:46:04.123Z,100499.13
2022-08-17T03:48:51.569Z,100491.16
2022-08-17T03:51:43.038Z,100491.84
2022-08-17T03:54:29.916Z,100498.16
2022-08-17T03:57:07.317Z,100501.81
2022-08-17T03:59:35.359Z,100499.34
2022-08-17T04:02:09.790Z,100505.34
2022-08-17T04:04:37.598Z,100510.97
2022-08-17T04:07:05.075Z,100511.66
2022-08-17T04:09:31.773Z,100501.69
2022-08-17T04:12:02.449Z,100510.16
2022-08-17T04:14:51.525Z,100508.59
2022-08-17T04:17:21.816Z,100514.88
2022-08-17T04:19:48.607Z,100515.53
2022-08-17T04:22:30.557Z,100518.84
2022-08-17T04:24:58.860Z,100519.03
2022-08-17T04:27:25.814Z,100519.84
2022-08-17T04:29:54.589Z,100523.97
2022-08-17T04:32:25.146Z,100531.63
2022-08-17T04:35:09.216Z,100529.53
2022-08-17T04:37:36.283Z,100537.53
2022-08-17T04:40:22.238Z,100533.56
2022-08-17T04:43:00.996Z,100537.88
2022-08-17T04:45:27.920Z,100536.00
2022-08-17T04:48:00.308Z,100539.88
2022-08-17T04:50:27.676Z,100537.56
2022-08-17T04:52:54.575Z,100526.50
2022-08-17T04:55:21.858Z,100522.16
2022-08-17T04:57:48.748Z,100530.41
2022-08-17T05:00:16.644Z,100528.75
2022-08-17T05:02:49.921Z,100527.25
2022-08-17T05:05:26.345Z,100543.69
2022-08-17T05:07:55.270Z,100542.88
2022-08-17T05:10:23.487Z,100546.41
2022-08-17T05:12:59.944Z,100545.13
2022-08-17T05:15:28.337Z,100549.69
2022-08-17T05:18:00.305Z,100549.69
2022-08-17T05:20:28.200Z,100554.28
2022-08-17T05:22:58.326Z,100557.75
2022-08-17T05:25:28.479Z,100557.75
2022-08-17T05:27:58.691Z,100559.31
2022-08-17T05:30:26.959Z,100554.28
2022-08-17T05:32:59.603Z,100551.97
2022-08-17T05:35:29.634Z,100553.56
2022-08-17T05:37:56.766Z,100559.69
2022-08-17T05:40:26.242Z,100559.97
2022-08-17T05:43:22.146Z,100550.94
2022-08-17T05:45:56.437Z,100556.63
2022-08-17T05:48:35.286Z,100551.34
2022-08-17T05:51:22.880Z,100551.97
2022-08-17T05:54:23.183Z,100542.72
2022-08-17T05:57:05.098Z,100553.75
2022-08-17T06:00:00.977Z,100551.13
2022-08-17T06:03:18.870Z,100543.97
2022-08-17T06:05:48.516Z,100537.72
2022-08-17T06:08:48.360Z,100550.19
2022-08-17T06:11:30.749Z,100539.47
2022-08-17T06:14:25.123Z,100534.19
2022-08-17T06:17:06.347Z,100534.28
2022-08-17T06:19:38.748Z,100536.75
2022-08-17T06:22:08.689Z,100532.16
2022-08-17T06:24:35.457Z,100523.44
2022-08-17T06:27:13.365Z,100528.88
2022-08-17T06:29:54.946Z,100521.69
2022-08-17T06:32:21.857Z,100519.53
2022-08-17T06:34:49.024Z,100526.75
2022-08-17T06:37:43.569Z,100527.44
2022-08-17T06:40:28.104Z,100539.03
2022-08-17T06:43:32.844Z,100535.00
2022-08-17T06:46:06.256Z,100536.06
2022-08-17T06:48:49.474Z,100528.53
2022-08-17T06:51:35.867Z,100522.28
2022-08-17T06:54:38.019Z,100525.47
2022-08-17T06:57:18.543Z,100516.59
2022-08-17T06:59:55.427Z,100527.81
2022-08-17T07:02:55.669Z,100528.19
2022-08-17T07:05:34.216Z,100533.81
2022-08-17T07:08:19.298Z,100528.47
2022-08-17T07:10:56.948Z,100535.00
2022-08-17T07:13:49.325Z,100532.03
2022-08-17T07:16:46.760Z,100539.03
2022-08-17T07:19:17.288Z,100530.59
2022-08-17T07:21:55.126Z,100531.63
2022-08-17T07:24:31.022Z,100537.81
2022-08-17T07:27:27.655Z,100518.41
2022-08-17T07:30:10.604Z,100529.00
2022-08-17T07:32:45.922Z,100524.94
2022-08-17T07:35:44.216Z,100523.25
2022-08-17T07:38:25.890Z,100535.50
2022-08-17T07:41:06.027Z,100534.88
2022-08-17T07:43:42.013Z,100532.78
2022-08-17T07:46:37.129Z,100525.78
2022-08-17T07:49:03.958Z,100528.31
2022-08-17T07:51:32.842Z,100520.81
2022-08-17T07:54:23.220Z,100527.28
2022-08-17T07:56:54.471Z,100521.72
2022-08-17T07:59:38.570Z,100518.38
2022-08-17T08:02:38.359Z,100530.00
2022-08-17T08:05:30.000Z,100529.91
2022-08-17T08:08:24.534Z,100531.75
2022-08-17T08:11:04.861Z,100529.41
2022-08-17T08:13:32.827Z,100533.00
2022-08-17T08:16:17.671Z,100529.56
2022-08-17T08:18:54.663Z,100529.84
2022-08-17T08:21:35.460Z,100539.47
2022-08-17T08:24:32.453Z,100538.41
2022-08-17T08:27:25.490Z,100537.59
2022-08-17T08:30:00.949Z,100526.69
2022-08-17T08:32:50.219Z,100528.88
2022-08-17T08:35:33.828Z,100531.88
2022-08-17T08:38:28.317Z,100533.31
2022-08-17T08:41:07.909Z,100532.75
2022-08-17T08:44:11.504Z,100536.31
2022-08-17T08:47:15.207Z,100529.75
2022-08-17T08:52:45.509Z,100531.66
2022-08-17T08:55:18.567Z,100531.97
2022-08-17T08:57:58.959Z,100532.50
2022-08-17T09:00:27.490Z,100530.59
2022-08-17T09:03:20.210Z,100536.06
2022-08-17T09:06:32.135Z,100531.41
2022-08-17T09:09:08.376Z,100530.84
2022-08-17T09:12:02.237Z,100536.03
2022-08-17T09:14:46.824Z,100532.75
2022-08-17T09:17:14.084Z,100532.19
2022-08-17T09:19:50.288Z,100529.75
2022-08-17T09:22:42.326Z,100534.31
2022-08-17T09:25:21.774Z,100529.94
2022-08-17T09:27:52.925Z,100539.19
2022-08-17T09:30:21.602Z,100523.03
2022-08-17T09:33:04.676Z,100529.53
2022-08-17T09:35:38.075Z,100525.97
2022-08-17T09:38:32.553Z,100526.13
2022-08-17T09:41:05.458Z,100521.13
2022-08-17T09:43:54.561Z,100516.28
2022-08-17T09:46:31.221Z,100525.13
2022-08-17T09:49:15.127Z,100520.34
2022-08-17T09:51:47.436Z,100532.31
2022-08-17T09:54:38.748Z,100525.53
2022-08-17T09:57:31.324Z,100526.13
2022-08-17T10:00:09.724Z,100520.00
2022-08-17T10:02:36.353Z,100518.13
2022-08-17T10:05:28.080Z,100524.13
2022-08-17T10:08:09.601Z,100518.84
2022-08-17T10:10:56.284Z,100519.28
2022-08-17T10:13:38.503Z,100516.50
2022-08-17T10:16:57.880Z,100521.97
2022-08-17T10:19:37.901Z,100519.59
2022-08-17T10:22:34.994Z,100526.13
2022-08-17T10:25:26.162Z,100515.31
2022-08-17T10:28:14.248Z,100511.66
2022-08-17T10:31:10.501Z,100513.22
2022-08-17T10:33:52.393Z,100505.06
2022-08-17T10:36:48.110Z,100507.78
2022-08-17T10:39:54.240Z,100518.84
2022-08-17T10:43:19.277Z,100523.06
2022-08-17T10:46:31.352Z,100508.22
2022-08-17T10:49:21.133Z,100513.88
2022-08-17T10:51:52.996Z,100513.66
2022-08-17T10:54:25.606Z,100508.22
2022-08-17T10:56:54.282Z,100505.41
2022-08-17T10:59:36.230Z,100512.97
2022-08-17T11:02:23.426Z,100520.66
2022-08-17T11:05:17.816Z,100517.91
2022-08-17T11:08:14.575Z,100514.22
2022-08-17T11:10:54.613Z,100504.41
2022-08-17T11:13:45.236Z,100503.13
2022-08-17T11:16:22.198Z,100494.41
2022-08-17T11:19:17.528Z,100504.72
2022-08-17T11:22:05.976Z,100505.31
2022-08-17T11:25:31.413Z,100499.78
2022-08-17T11:28:09.462Z,100505.22
2022-08-17T11:30:50.957Z,100504.09
2022-08-17T11:33:29.778Z,100508.19
2022-08-17T11:36:10.282Z,100512.53
2022-08-17T11:38:49.152Z,100507.03
2022-08-17T11:41:30.626Z,100512.25
2022-08-17T11:44:19.390Z,100510.59
2022-08-17T11:47:23.849Z,100506.09
2022-08-17T11:50:28.170Z,100511.78
2022-08-17T11:52:55.223Z,100510.31
2022-08-17T11:55:39.334Z,100511.19
2022-08-17T11:58:30.088Z,100509.13
2022-08-17T12:01:02.444Z,100504.97
2022-08-17T12:03:32.056Z,100504.56
2022-08-17T12:06:19.995Z,100513.03
2022-08-17T12:09:20.196Z,100506.97
2022-08-17T12:12:29.763Z,100514.75
2022-08-17T12:15:15.425Z,100508.97
2022-08-17T12:17:46.367Z,100511.69
2022-08-17T12:20:23.274Z,100509.53
2022-08-17T12:23:11.141Z,100514.22
2022-08-17T12:25:44.455Z,100504.00
2022-08-17T12:28:45.430Z,100511.19
2022-08-17T12:31:19.600Z,100513.59
2022-08-17T12:33:48.090Z,100510.09
2022-08-17T12:36:21.679Z,100508.81
2022-08-17T12:39:13.736Z,100509.22
2022-08-17T12:41:47.394Z,100507.38
2022-08-17T12:44:30.234Z,100509.22
2022-08-17T12:47:21.853Z,100525.31
2022-08-17T12:49:52.532Z,100533.44
2022-08-17T12:52:32.990Z,100556.50
2022-08-17T12:55:03.517Z,100578.97
2022-08-17T12:57:51.841Z,100595.66
2022-08-17T13:00:25.122Z,100601.75
2022-08-17T13:02:55.256Z,100619.94
2022-08-17T13:05:24.026Z,100629.84
2022-08-17T13:07:53.413Z,100629.84
2022-08-17T13:10:32.901Z,100619.38
2022-08-17T13:13:05.324Z,100616.91
2022-08-17T13:15:44.444Z,100619.69
2022-08-17T13:18:47.179Z,100598.78
2022-08-17T13:21:19.904Z,100594.28
2022-08-17T13:23:58.703Z,100584.94
2022-08-17T13:26:34.466Z,100563.69
2022-08-17T13:29:05.750Z,100569.50
2022-08-17T13:31:44.057Z,100578.41
2022-08-17T13:34:26.981Z,100576.09
2022-08-17T13:37:18.303Z,100564.88
2022-08-17T13:39:47.517Z,100555.19
2022-08-17T13:42:52.660Z,100563.75
2022-08-17T13:45:32.240Z,100556.72
2022-08-17T13:48:11.881Z,100550.44
2022-08-17T13:50:55.892Z,100546.84
2022-08-17T13:53:22.767Z,100540.09
2022-08-17T13:56:00.795Z,100524.59
2022-08-17T13:58:40.531Z,100535.28
2022-08-17T14:01:37.066Z,100543.88
2022-08-17T14:04:10.223Z,100533.63
2022-08-17T14:06:51.978Z,100526.09
2022-08-17T14:09:23.136Z,100524.94
2022-08-17T14:11:52.885Z,100519.47
2022-08-17T14:14:23.348Z,100514.47
2022-08-17T14:16:51.946Z,100507.44
2022-08-17T14:19:19.769Z,100502.75
2022-08-17T14:21:47.143Z,100503.09
2022-08-17T14:24:43.948Z,100491.22
2022-08-17T14:27:12.142Z,100490.41
2022-08-17T14:29:41.182Z,100485.78
2022-08-17T14:32:26.772Z,100491.78
2022-08-17T14:34:54.913Z,100488.22
2022-08-17T14:37:21.857Z,100478.16
2022-08-17T14:39:48.838Z,100483.44
2022-08-17T14:42:16.466Z,100485.56
2022-08-17T14:44:43.242Z,100487.25
2022-08-17T14:47:15.873Z,100481.81
2022-08-17T14:49:43.776Z,100484.63
2022-08-17T14:52:22.016Z,100485.22
2022-08-17T14:54:51.454Z,100465.88
2022-08-17T14:57:34.256Z,100476.19
2022-08-17T15:00:02.053Z,100475.41
2022-08-17T15:02:30.905Z,100476.41
2022-08-17T15:05:06.993Z,100475.81
2022-08-17T15:07:33.787Z,100473.38
2022-08-17T15:10:02.138Z,100473.56
2022-08-17T15:12:34.105Z,100474.19
2022-08-17T15:15:04.644Z,100468.66
2022-08-17T15:17:45.149Z,100466.31
2022-08-17T15:20:24.917Z,100475.09
2022-08-17T15:22:56.235Z,100464.38
2022-08-17T15:25:25.218Z,100460.78
2022-08-17T15:27:52.492Z,100460.63
2022-08-17T15:30:19.971Z,100459.31
2022-08-17T15:32:51.111Z,100459.59
2022-08-17T15:35:27.040Z,100459.41
2022-08-17T15:38:06.180Z,100456.00
2022-08-17T15:40:40.906Z,100457.31
2022-08-17T15:43:11.657Z,100460.25
2022-08-17T15:45:40.103Z,100448.38
2022-08-17T15:48:07.369Z,100448.34
2022-08-17T15:50:34.454Z,100449.81
2022-08-17T15:53:03.349Z,100451.41
2022-08-17T15:55:32.189Z,100454.34
2022-08-17T15:57:59.564Z,100457.13
2022-08-17T16:00:28.481Z,100455.28
2022-08-17T16:03:46.050Z,100454.94
2022-08-17T16:05:44.455Z,100456.66
2022-08-17T16:08:18.529Z,100462.75
2022-08-17T16:10:47.721Z,100467.19
2022-08-17T16:13:17.567Z,100459.28
2022-08-17T16:15:51.060Z,100480.28
2022-08-17T16:18:31.183Z,100488.22
2022-08-17T16:21:24.251Z,100499.91
2022-08-17T16:23:59.768Z,100502.00
2022-08-17T16:26:28.684Z,100502.13
2022-08-17T16:28:56.891Z,100498.78
2022-08-17T16:31:24.057Z,100505.75
2022-08-17T16:34:15.788Z,100504.66
2022-08-17T16:36:39.114Z,100504.47
2022-08-17T16:39:06.008Z,100507.63
2022-08-17T16:41:45.492Z,100505.66
2022-08-17T16:44:16.900Z,100501.50
2022-08-17T16:46:46.219Z,100500.09
2022-08-17T16:49:35.234Z,100494.84
2022-08-17T16:52:03.444Z,100497.50
2022-08-17T16:54:30.446Z,100501.50
2022-08-17T16:56:57.313Z,100502.00
2022-08-17T16:59:30.376Z,100517.53
2022-08-17T17:02:04.895Z,100513.97
2022-08-17T17:04:35.052Z,100506.28
2022-08-17T17:08:08.988Z,100508.94
2022-08-17T17:10:42.828Z,100520.16
2022-08-17T17:13:17.303Z,100521.38
2022-08-17T17:15:55.286Z,100533.59
2022-08-17T17:18:31.843Z,100529.47
2022-08-17T17:21:00.530Z,100530.19
2022-08-17T17:23:39.806Z,100533.22
2022-08-17T17:26:27.409Z,100537.91
2022-08-17T17:29:16.357Z,100541.44
2022-08-17T17:32:02.091Z,100541.75
2022-08-17T17:34:32.609Z,100549.66
2022-08-17T17:37:08.735Z,100552.84
2022-08-17T17:39:46.418Z,100556.34
2022-08-17T17:42:23.958Z,100559.31
2022-08-17T17:45:20.057Z,100564.97
2022-08-17T17:47:47.013Z,100566.41
2022-08-17T17:50:16.289Z,100573.84
2022-08-17T17:52:47.161Z,100577.34
2022-08-17T17:55:33.024Z,100570.56
2022-08-17T17:58:22.487Z,100583.44
2022-08-17T18:00:54.959Z,100585.59
2022-08-17T18:03:50.758Z,100586.94
2022-08-17T18:06:36.808Z,100590.81
2022-08-17T18:09:42.500Z,100601.78
2022-08-17T18:12:31.573Z,100605.91
2022-08-17T18:15:08.376Z,100608.16
2022-08-17T18:17:36.349Z,100613.25
2022-08-17T18:20:05.072Z,100630.38
2022-08-17T18:22:32.260Z,100632.91
2022-08-17T18:24:59.080Z,100637.38
2022-08-17T18:27:35.218Z,100652.41
2022-08-17T18:30:25.433Z,100650.31
2022-08-17T18:32:53.751Z,100657.94
2022-08-17T18:35:28.401Z,100656.91
2022-08-17T18:38:19.913Z,100659.25
2022-08-17T18:40:59.017Z,100654.56
2022-08-17T18:43:44.400Z,100652.50
2022-08-17T18:46:35.376Z,100641.66
2022-08-17T18:49:24.055Z,100644.28
2022-08-17T18:52:26.216Z,100650.19
2022-08-17T18:55:09.525Z,100647.38
2022-08-17T18:57:41.923Z,100657.88
2022-08-17T19:00:20.344Z,100647.41
2022-08-17T19:02:56.291Z,100642.81
2022-08-17T19:05:35.876Z,100637.88
2022-08-17T19:08:30.863Z,100634.34
2022-08-17T19:11:11.301Z,100639.31
2022-08-17T19:13:57.913Z,100644.00
2022-08-17T19:16:32.242Z,100642.59
2022-08-17T19:19:11.255Z,100642.47
2022-08-17T19:21:46.412Z,100642.25
2022-08-17T19:24:26.551Z,100652.28
2022-08-17T19:27:11.510Z,100654.03
2022-08-17T19:29:46.994Z,100669.72
2022-08-17T19:32:15.909Z,100671.13
2022-08-17T19:34:44.750Z,100665.59
2022-08-17T19:37:59.353Z,100674.78
2022-08-17T19:40:54.068Z,100670.78
2022-08-17T19:43:30.818Z,100659.22
2022-08-17T19:46:26.201Z,100677.75
2022-08-17T19:49:41.119Z,100675.16
2022-08-17T19:55:01.218Z,100678.66
2022-08-17T19:57:48.267Z,100685.09
2022-08-17T20:00:17.226Z,100686.03
2022-08-17T20:02:49.773Z,100689.88
2022-08-17T20:06:10.931Z,100684.03
2022-08-17T20:08:51.947Z,100678.22
2022-08-17T20:11:31.619Z,100675.84
2022-08-17T20:14:13.260Z,100679.09
2022-08-17T20:16:42.580Z,100690.75
2022-08-17T20:19:45.552Z,100685.09
2022-08-17T20:22:17.917Z,100690.97
2022-08-17T20:25:30.430Z,100691.09
2022-08-17T20:28:14.735Z,100689.91
2022-08-17T20:30:43.329Z,100698.50
2022-08-17T20:33:27.509Z,100700.81
2022-08-17T20:36:16.548Z,100712.25
2022-08-17T20:38:52.107Z,100696.13
2022-08-17T20:41:21.021Z,100699.09
2022-08-17T20:43:51.171Z,100714.59
2022-08-17T20:46:36.390Z,100716.56
2022-08-17T20:49:08.959Z,100731.00
2022-08-17T20:52:01.698Z,100740.22
2022-08-17T20:54:53.544Z,100745.41
2022-08-17T20:57:32.466Z,100736.25
2022-08-17T21:00:06.669Z,100744.88
2022-08-17T21:02:33.717Z,100744.88
2022-08-17T21:05:06.885Z,100737.72
2022-08-17T21:07:43.367Z,100757.25
2022-08-17T21:10:25.744Z,100752.25
2022-08-17T21:13:04.903Z,100746.09
2022-08-17T21:15:55.753Z,100748.94
2022-08-17T21:18:32.517Z,100742.13
2022-08-17T21:21:31.428Z,100751.94
2022-08-17T21:24:19.493Z,100745.94
2022-08-17T21:27:25.979Z,100743.09
2022-08-17T21:30:15.078Z,100751.66
2022-08-17T21:32:44.638Z,100757.31
2022-08-17T21:35:23.483Z,100761.78
2022-08-17T21:37:53.386Z,100754.44
2022-08-17T21:40:32.339Z,100757.63
2022-08-17T21:43:26.710Z,100761.13
2022-08-17T21:45:58.486Z,100762.81
2022-08-17T21:48:27.467Z,100756.19
2022-08-17T21:51:10.571Z,100753.75
2022-08-17T21:53:44.772Z,100759.59
2022-08-17T21:56:21.160Z,100763.38
2022-08-17T21:58:57.289Z,100763.34
2022-08-17T22:01:34.951Z,100756.63
2022-08-17T22:04:11.507Z,100761.81
2022-08-17T22:06:52.403Z,100755.56
2022-08-17T22:09:33.720Z,100759.06
2022-08-17T22:12:12.322Z,100760.88
2022-08-17T22:14:53.273Z,100763.31
2022-08-17T22:17:26.546Z,100762.25
2022-08-17T22:20:05.424Z,100757.47
2022-08-17T22:23:04.264Z,100759.13
2022-08-17T22:25:34.337Z,100757.31
2022-08-17T22:28:07.846Z,100755.50
2022-08-17T22:30:43.196Z,100771.41
2022-08-17T22:33:46.936Z,100775.22
2022-08-17T22:36:37.576Z,100771.78
2022-08-17T22:39:10.170Z,100768.06
2022-08-17T22:41:59.503Z,100766.19
2022-08-17T22:44:28.506Z,100765.38
2022-08-17T22:47:11.354Z,100767.84
2022-08-17T22:49:53.248Z,100767.88
2022-08-17T22:52:35.209Z,100768.28
2022-08-17T22:55:23.936Z,100771.03
2022-08-17T22:58:10.151Z,100770.59
2022-08-17T23:00:45.089Z,100775.63
2022-08-17T23:03:17.773Z,100772.88
2022-08-17T23:06:09.914Z,100775.75
2022-08-17T23:08:59.475Z,100771.38
2022-08-17T23:11:36.657Z,100769.75
2022-08-17T23:14:19.389Z,100776.44
2022-08-17T23:16:49.100Z,100784.75
2022-08-17T23:19:21.262Z,100790.81
2022-08-17T23:21:49.298Z,100785.84
2022-08-17T23:24:21.628Z,100779.63
2022-08-17T23:26:48.539Z,100778.34
2022-08-17T23:29:15.410Z,100776.50
2022-08-17T23:31:42.565Z,100780.22
2022-08-17T23:34:27.584Z,100772.78
2022-08-17T23:36:55.599Z,100774.22
2022-08-17T23:39:27.409Z,100772.78
2022-08-17T23:41:55.259Z,100772.38
2022-08-17T23:44:25.328Z,100774.25
2022-08-17T23:46:52.909Z,100767.00
2022-08-17T23:49:19.845Z,100767.00
2022-08-17T23:51:48.184Z,100768.03
2022-08-17T23:54:33.685Z,100774.06
2022-08-17T23:57:02.415Z,100772.00
2022-08-17T23:59:29.364Z,100786.53
